createdAt,value
2018-10-16T00:03:17.511Z,93.90
2018-10-16T00:13:25.963Z,93.70
2018-10-16T00:18:31.059Z,93.80
2018-10-16T00:23:35.320Z,93.70
2018-10-16T00:28:39.890Z,93.80
2018-10-16T00:33:44.108Z,94.10
2018-10-16T00:38:48.298Z,95.60
2018-10-16T00:43:52.635Z,95.40
2018-10-16T00:48:56.971Z,94.60
2018-10-16T00:54:01.453Z,95.80
2018-10-16T00:59:05.721Z,96.00
2018-10-16T01:04:09.939Z,95.20
2018-10-16T01:09:14.637Z,95.10
2018-10-16T01:14:18.870Z,94.60
2018-10-16T01:19:23.378Z,94.90
2018-10-16T01:24:27.829Z,94.60
2018-10-16T01:29:32.038Z,94.20
2018-10-16T01:34:36.312Z,95.30
2018-10-16T01:39:40.781Z,96.10
2018-10-16T01:44:45.049Z,95.20
2018-10-16T01:49:49.284Z,95.00
2018-10-16T01:54:53.589Z,95.20
2018-10-16T01:59:57.842Z,95.10
2018-10-16T02:05:02.167Z,95.70
2018-10-16T02:10:06.797Z,95.50
2018-10-16T02:15:11.058Z,95.40
2018-10-16T02:20:15.241Z,94.90
2018-10-16T02:25:19.605Z,95.20
2018-10-16T02:30:23.887Z,96.30
2018-10-16T02:35:28.091Z,96.50
2018-10-16T02:40:32.326Z,95.80
2018-10-16T02:45:36.562Z,95.60
2018-10-16T02:50:41.060Z,95.30
2018-10-16T02:55:45.348Z,95.20
2018-10-16T03:00:49.556Z,95.20
2018-10-16T03:05:53.764Z,95.00
2018-10-16T03:10:58.097Z,95.30
2018-10-16T03:16:02.400Z,94.90
2018-10-16T03:21:06.570Z,95.10
2018-10-16T03:26:10.729Z,95.10
2018-10-16T03:31:14.958Z,95.30
2018-10-16T03:36:19.202Z,95.70
2018-10-16T03:41:24.001Z,95.40
2018-10-16T03:46:28.502Z,95.80
2018-10-16T03:51:32.816Z,96.30
2018-10-16T03:56:37.111Z,97.00
2018-10-16T04:01:42.027Z,96.60
2018-10-16T04:06:46.357Z,97.00
2018-10-16T04:11:50.540Z,95.80
2018-10-16T04:16:55.870Z,95.90
2018-10-16T04:22:00.090Z,95.20
2018-10-16T04:27:04.640Z,95.40
2018-10-16T04:32:08.889Z,96.00
2018-10-16T04:37:13.172Z,97.70
2018-10-16T04:42:17.363Z,96.40
2018-10-16T04:47:21.581Z,96.90
2018-10-16T04:52:26.480Z,96.70
2018-10-16T04:57:30.694Z,96.60
2018-10-16T05:02:34.976Z,97.00
2018-10-16T05:07:39.260Z,96.80
2018-10-16T05:12:43.576Z,96.50
2018-10-16T05:17:47.847Z,97.90
2018-10-16T05:22:52.180Z,97.60
2018-10-16T05:27:57.076Z,96.40
2018-10-16T05:33:01.549Z,95.70
2018-10-16T05:38:05.981Z,96.00
2018-10-16T05:43:10.264Z,96.10
2018-10-16T05:48:14.527Z,96.90
2018-10-16T05:53:18.761Z,97.20
2018-10-16T05:58:22.996Z,96.60
2018-10-16T06:03:27.342Z,96.20
2018-10-16T06:08:31.516Z,96.20
2018-10-16T06:13:35.868Z,96.20
2018-10-16T06:18:40.070Z,96.20
2018-10-16T06:23:44.431Z,96.10
2018-10-16T06:28:48.719Z,96.20
2018-10-16T06:33:53.140Z,96.30
2018-10-16T06:38:57.493Z,96.20
2018-10-16T06:44:01.868Z,96.30
2018-10-16T06:49:05.940Z,97.90
2018-10-16T06:54:10.239Z,98.30
2018-10-16T06:59:14.619Z,96.70
2018-10-16T07:04:19.005Z,98.30
2018-10-16T07:09:23.302Z,99.40
2018-10-16T07:14:27.744Z,99.90
2018-10-16T07:19:31.925Z,99.40
2018-10-16T07:24:36.231Z,99.70
2018-10-16T07:29:41.229Z,99.90
2018-10-16T07:34:45.851Z,99.60
2018-10-16T07:39:50.089Z,98.30
2018-10-16T07:44:54.369Z,98.60
2018-10-16T07:49:58.818Z,98.60
2018-10-16T07:55:03.159Z,99.30
2018-10-16T08:00:08.568Z,99.90
2018-10-16T08:05:12.956Z,99.90
2018-10-16T08:10:17.321Z,99.90
2018-10-16T08:15:21.588Z,99.90
2018-10-16T08:20:25.758Z,99.90
2018-10-16T08:25:30.340Z,99.90
2018-10-16T08:30:34.653Z,99.90
2018-10-16T08:35:39.023Z,99.90
2018-10-16T08:40:43.303Z,99.90
2018-10-16T08:45:58.983Z,99.90
2018-10-16T08:51:14.265Z,99.90
2018-10-16T08:56:18.442Z,99.90
2018-10-16T09:01:22.753Z,99.90
2018-10-16T09:06:27.045Z,99.90
2018-10-16T09:11:31.301Z,99.90
2018-10-16T09:17:32.707Z,99.90
2018-10-16T09:22:37.116Z,99.90
2018-10-16T09:27:41.730Z,99.90
2018-10-16T09:32:46.172Z,97.70
2018-10-16T09:37:50.720Z,98.80
2018-10-16T09:42:55.060Z,98.30
2018-10-16T09:47:59.628Z,99.00
2018-10-16T09:53:04.198Z,99.00
2018-10-16T09:58:08.635Z,98.60
2018-10-16T10:03:13.160Z,98.80
2018-10-16T10:08:17.621Z,98.30
2018-10-16T10:13:21.885Z,97.60
2018-10-16T10:18:26.132Z,96.00
2018-10-16T10:23:30.613Z,96.40
2018-10-16T10:28:34.713Z,95.10
2018-10-16T10:33:39.020Z,95.50
2018-10-16T10:38:43.263Z,94.20
2018-10-16T10:43:47.514Z,93.90
2018-10-16T10:48:52.058Z,93.00
2018-10-16T10:53:56.600Z,92.50
2018-10-16T11:04:24.524Z,91.10
2018-10-16T11:09:28.861Z,90.00
2018-10-16T11:14:33.193Z,83.40
2018-10-16T11:19:37.443Z,83.90
2018-10-16T11:24:41.641Z,84.30
2018-10-16T11:29:45.902Z,86.20
2018-10-16T11:34:50.248Z,86.90
2018-10-16T11:39:54.456Z,86.10
2018-10-16T11:44:58.962Z,86.60
2018-10-16T11:50:03.192Z,87.10
2018-10-16T11:55:07.944Z,86.40
2018-10-16T12:00:16.838Z,85.80
2018-10-16T12:05:21.232Z,84.10
2018-10-16T12:10:25.545Z,81.50
2018-10-16T12:15:30.078Z,82.10
2018-10-16T12:20:46.850Z,82.90
2018-10-16T12:25:51.140Z,78.80
2018-10-16T12:30:55.566Z,80.70
2018-10-16T12:35:59.783Z,79.60
2018-10-16T12:41:04.050Z,78.50
2018-10-16T12:46:08.258Z,78.40
2018-10-16T12:51:12.461Z,77.30
2018-10-16T12:56:16.631Z,76.30
2018-10-16T13:01:20.802Z,76.80
2018-10-16T13:06:25.089Z,76.30
2018-10-16T13:11:29.384Z,77.00
2018-10-16T13:16:33.602Z,77.80
2018-10-16T13:21:37.889Z,76.30
2018-10-16T13:26:42.182Z,75.50
2018-10-16T13:31:46.378Z,80.30
2018-10-16T13:36:50.897Z,79.60
2018-10-16T13:41:55.068Z,80.00
2018-10-16T13:46:59.312Z,79.40
2018-10-16T13:52:03.636Z,80.60
2018-10-16T13:57:07.768Z,78.60
2018-10-16T14:02:12.013Z,79.10
2018-10-16T14:07:16.155Z,79.40
2018-10-16T14:12:20.672Z,78.80
2018-10-16T14:17:25.109Z,77.60
2018-10-16T14:22:29.787Z,78.80
2018-10-16T14:27:41.377Z,79.40
2018-10-16T14:32:45.651Z,80.40
2018-10-16T14:37:49.864Z,79.50
2018-10-16T14:42:54.184Z,77.20
2018-10-16T14:47:58.496Z,75.50
2018-10-16T14:53:02.698Z,75.60
2018-10-16T14:58:06.926Z,77.50
2018-10-16T15:03:11.023Z,79.50
2018-10-16T15:08:15.659Z,81.40
2018-10-16T15:13:20.216Z,79.60
2018-10-16T15:18:24.711Z,77.80
2018-10-16T15:23:29.253Z,78.20
2018-10-16T15:28:33.645Z,79.30
2018-10-16T15:33:38.177Z,77.90
2018-10-16T15:38:42.720Z,80.00
2018-10-16T15:43:47.178Z,81.00
2018-10-16T15:48:51.576Z,80.20
2018-10-16T15:53:55.980Z,81.80
2018-10-16T15:59:00.190Z,82.50
2018-10-16T16:04:04.892Z,82.40
2018-10-16T16:09:09.367Z,82.40
2018-10-16T16:14:13.652Z,82.90
2018-10-16T16:19:17.898Z,82.90
2018-10-16T16:24:22.821Z,82.40
2018-10-16T16:29:27.310Z,82.20
2018-10-16T16:34:31.505Z,81.80
2018-10-16T16:39:35.839Z,82.20
2018-10-16T16:44:40.162Z,81.60
2018-10-16T16:49:44.305Z,82.10
2018-10-16T16:54:48.689Z,82.50
2018-10-16T16:59:53.029Z,82.70
2018-10-16T17:04:57.254Z,83.10
2018-10-16T17:10:01.809Z,82.80
2018-10-16T17:15:07.980Z,83.70
2018-10-16T17:21:36.632Z,83.80
2018-10-16T17:26:40.896Z,84.00
2018-10-16T17:31:45.438Z,83.90
2018-10-16T17:36:49.678Z,84.90
2018-10-16T17:41:53.903Z,84.40
2018-10-16T17:46:58.221Z,85.00
2018-10-16T17:52:02.525Z,85.50
2018-10-16T17:57:06.836Z,85.50
2018-10-16T18:02:10.964Z,86.20
2018-10-16T18:07:15.109Z,86.00
2018-10-16T18:12:19.392Z,86.90
2018-10-16T18:17:23.726Z,86.90
2018-10-16T18:22:27.990Z,87.30
2018-10-16T18:27:32.278Z,87.80
2018-10-16T18:32:36.657Z,86.80
2018-10-16T18:37:41.899Z,87.80
2018-10-16T18:42:47.202Z,87.90
2018-10-16T18:47:52.024Z,87.40
2018-10-16T18:52:57.785Z,88.00
2018-10-16T18:58:02.571Z,87.00
2018-10-16T19:03:08.410Z,88.40
2018-10-16T19:08:12.922Z,88.10
2018-10-16T19:13:18.510Z,88.30
2018-10-16T19:18:24.404Z,88.40
2018-10-16T19:23:29.860Z,88.80
2018-10-16T19:28:34.215Z,90.10
2018-10-16T19:33:38.752Z,90.00
2018-10-16T19:38:43.269Z,90.40
2018-10-16T19:43:48.278Z,90.60
2018-10-16T19:48:53.409Z,91.50
2018-10-16T19:53:58.082Z,92.00
2018-10-16T19:59:02.675Z,91.60
2018-10-16T20:04:07.543Z,92.50
2018-10-16T20:09:12.502Z,92.50
2018-10-16T20:14:17.127Z,91.80
2018-10-16T20:19:21.449Z,91.40
2018-10-16T20:24:26.454Z,91.60
2018-10-16T20:29:30.855Z,92.50
2018-10-16T20:34:36.989Z,91.80
2018-10-16T20:39:42.560Z,92.90
2018-10-16T20:44:47.831Z,92.90
2018-10-16T20:49:52.301Z,93.00
2018-10-16T20:54:56.592Z,92.20
2018-10-16T21:00:01.547Z,92.00
2018-10-16T21:05:06.796Z,92.00
2018-10-16T21:10:10.868Z,92.20
2018-10-16T21:15:15.147Z,92.00
2018-10-16T21:20:19.444Z,92.10
2018-10-16T21:25:23.634Z,92.10
2018-10-16T21:30:27.719Z,92.40
2018-10-16T21:35:32.007Z,92.50
2018-10-16T21:40:36.404Z,92.90
2018-10-16T21:45:40.570Z,93.00
2018-10-16T21:50:44.863Z,93.00
2018-10-16T21:55:49.131Z,92.80
2018-10-16T22:00:58.517Z,92.70
2018-10-16T22:06:02.759Z,94.10
2018-10-16T22:11:07.044Z,93.90
2018-10-16T22:16:11.438Z,94.90
2018-10-16T22:21:15.848Z,94.60
2018-10-16T22:26:20.108Z,94.00
2018-10-16T22:31:24.321Z,93.80
2018-10-16T22:36:28.518Z,94.20
2018-10-16T22:41:32.706Z,93.60
2018-10-16T22:46:37.131Z,94.10
2018-10-16T22:51:41.478Z,94.60
2018-10-16T22:56:45.752Z,94.20
2018-10-16T23:01:49.955Z,93.80
2018-10-16T23:06:54.184Z,94.70
2018-10-16T23:11:58.372Z,96.20
2018-10-16T23:17:02.757Z,95.30
2018-10-16T23:22:06.899Z,95.40
2018-10-16T23:27:11.109Z,95.80
2018-10-16T23:32:15.558Z,95.60
2018-10-16T23:37:20.131Z,96.40
2018-10-16T23:42:24.327Z,95.60
2018-10-16T23:47:28.594Z,95.10
2018-10-16T23:52:32.826Z,94.70
2018-10-16T23:57:37.028Z,95.10
